Time;durP1;ratioP1;P1;durP2;ratioP2;P2;SDS_P1;SDS_P2;PMS_P1;PMS_P2;Temp;Humidity;BMP_temperature;BMP_pressure;BME280_temperature;BME280_humidity;BME280_pressure;Samples;Min_cycle;Max_cycle;Signal;HPM_P1;HPM_P2
2023/01/15 00:02:08;;;;;;;;;;;;;;;26.45;39.32;93497.56;5005146;28;9225;-62
2023/01/15 00:04:34;;;;;;;;;;;;;;;26.43;38.69;93505.63;5012723;28;9441;-61
2023/01/15 00:07:12;;;;;;;;;;;;;;;26.42;39.37;93504.91;5013236;28;7593;-62
2023/01/15 00:09:45;;;;;;;;;;;;;;;26.43;38.81;93500.88;5000592;28;7141;-61
2023/01/15 00:12:15;;;;;;;;;;;;;;;26.41;38.91;93495.16;5025991;28;9104;-61
2023/01/15 00:14:44;;;;;;;;;;;;;;;26.43;39.30;93486.34;5011334;28;7222;-62
2023/01/15 00:17:11;;;;;;;;;;;;;;;26.45;38.71;93483.78;5004873;28;7260;-62
2023/01/15 00:19:38;;;;;;;;;;;;;;;26.44;39.29;93483.06;5009386;28;7059;-61
2023/01/15 00:22:04;;;;;;;;;;;;;;;26.45;39.38;93478.25;5008574;28;9957;-62
2023/01/15 00:27:37;;;;;;;;;;;;;;;26.42;39.23;93476.59;5008047;28;7270;-62
2023/01/15 00:30:04;;;;;;;;;;;;;;;26.47;38.78;93470.94;5011975;28;7056;-62
2023/01/15 00:32:44;;;;;;;;;;;;;;;26.48;38.68;93460.66;5023951;28;9128;-62
2023/01/15 00:35:22;;;;;;;;;;;;;;;26.47;38.90;93456.44;5024162;28;7271;-61
2023/01/15 00:37:50;;;;;;;;;;;;;;;26.49;38.78;93462.16;5012223;28;7254;-62
2023/01/15 00:40:22;;;;;;;;;;;;;;;26.46;39.11;93460.44;5010146;28;7266;-62
2023/01/15 00:42:50;;;;;;;;;;;;;;;26.46;39.10;93465.97;5005265;28;7261;-62
2023/01/15 00:45:16;;;;;;;;;;;;;;;26.48;38.89;93463.41;5007807;28;7109;-61
2023/01/15 00:47:44;;;;;;;;;;;;;;;26.46;39.01;93472.22;5006234;28;8992;-62
2023/01/15 00:50:15;;;;;;;;;;;;;;;26.44;39.18;93463.00;5008392;28;7049;-62
2023/01/15 00:52:41;;;;;;;;;;;;;;;26.41;39.19;93466.84;5019048;28;9707;-61
2023/01/15 00:55:09;;;;;;;;;;;;;;;26.39;39.00;93458.38;5007551;28;7032;-61
2023/01/15 00:57:36;;;;;;;;;;;;;;;26.40;38.76;93454.34;5017271;28;7450;-62
2023/01/15 01:00:03;;;;;;;;;;;;;;;26.38;38.87;93457.63;5022728;28;9078;-61
2023/01/15 01:02:30;;;;;;;;;;;;;;;26.38;39.20;93451.38;5026294;28;9598;-62
2023/01/15 01:05:05;;;;;;;;;;;;;;;26.33;39.15;93446.75;5007175;28;7163;-62
2023/01/15 01:07:35;;;;;;;;;;;;;;;26.32;38.87;93448.75;5007528;28;7259;-62
2023/01/15 01:10:01;;;;;;;;;;;;;;;26.31;39.51;93455.56;5008725;28;7266;-62
2023/01/15 01:13:16;;;;;;;;;;;;;;;26.37;38.96;93453.41;5005573;28;8797;-62
2023/01/15 01:16:19;;;;;;;;;;;;;;;26.37;39.03;93455.41;4975019;28;7045;-62
2023/01/15 01:18:51;;;;;;;;;;;;;;;26.36;38.67;93449.16;4953146;28;7324;-62
2023/01/15 01:21:23;;;;;;;;;;;;;;;26.36;39.17;93438.13;4978640;28;8798;-61
2023/01/15 01:24:09;;;;;;;;;;;;;;;26.35;39.68;93438.66;4955673;28;7057;-61
2023/01/15 01:26:38;;;;;;;;;;;;;;;26.34;39.31;93437.19;4956858;28;7443;-62
2023/01/15 01:29:04;;;;;;;;;;;;;;;26.33;39.28;93430.94;4960237;28;8979;-61
2023/01/15 01:31:40;;;;;;;;;;;;;;;26.36;39.34;93429.13;4977245;28;7175;-61
2023/01/15 01:34:22;;;;;;;;;;;;;;;26.35;38.98;93424.88;4958576;28;9013;-62
2023/01/15 01:37:03;;;;;;;;;;;;;;;26.35;38.97;93422.13;4965415;28;7084;-61
2023/01/15 01:39:38;;;;;;;;;;;;;;;26.35;39.27;93417.34;4975260;28;7052;-61
2023/01/15 01:42:16;;;;;;;;;;;;;;;26.35;38.94;93413.84;4953969;28;8691;-61
2023/01/15 01:44:42;;;;;;;;;;;;;;;26.36;39.44;93435.34;4977595;28;8746;-62
2023/01/15 01:47:26;;;;;;;;;;;;;;;26.34;39.69;93426.91;4959209;28;8940;-61
2023/01/15 01:50:03;;;;;;;;;;;;;;;26.34;39.54;93415.88;4955404;28;7188;-62
2023/01/15 01:52:37;;;;;;;;;;;;;;;26.35;39.57;93400.06;4986953;28;7271;-61
2023/01/15 01:55:06;;;;;;;;;;;;;;;26.32;39.13;93406.69;5009723;28;7214;-62
2023/01/15 01:57:33;;;;;;;;;;;;;;;26.36;39.61;93415.34;5013033;28;8743;-62
2023/01/15 02:00:04;;;;;;;;;;;;;;;26.37;38.95;93400.25;4987374;28;7355;-62
2023/01/15 02:02:30;;;;;;;;;;;;;;;26.36;39.84;93405.03;5002735;28;9055;-62
2023/01/15 02:05:06;;;;;;;;;;;;;;;26.37;38.93;93403.78;5009770;28;9456;-62
2023/01/15 02:07:34;;;;;;;;;;;;;;;26.35;39.10;93411.84;5029809;28;8997;-62
2023/01/15 02:10:04;;;;;;;;;;;;;;;26.33;39.24;93402.63;5005992;28;9843;-61
2023/01/15 02:12:35;;;;;;;;;;;;;;;26.34;39.50;93393.09;5022936;28;8163;-62
2023/01/15 02:15:13;;;;;;;;;;;;;;;26.34;39.04;93395.84;5007454;28;8961;-61
2023/01/15 02:18:00;;;;;;;;;;;;;;;26.33;39.23;93391.59;5006065;28;10185;-62
2023/01/15 02:20:35;;;;;;;;;;;;;;;26.33;39.56;93394.34;5006585;28;9468;-61
2023/01/15 02:23:21;;;;;;;;;;;;;;;26.33;39.19;93388.84;5005413;28;7110;-62
2023/01/15 02:26:17;;;;;;;;;;;;;;;26.33;39.91;93375.81;5005805;28;7077;-61
2023/01/15 02:28:50;;;;;;;;;;;;;;;26.33;39.20;93372.31;5006814;28;7026;-61
2023/01/15 02:31:32;;;;;;;;;;;;;;;26.34;39.05;93360.00;5018046;28;8757;-61
2023/01/15 02:34:11;;;;;;;;;;;;;;;26.30;39.76;93356.84;5020484;28;8200;-62
2023/01/15 02:36:43;;;;;;;;;;;;;;;26.30;39.28;93374.13;5003692;28;9331;-62
2023/01/15 02:39:14;;;;;;;;;;;;;;;26.30;39.72;93367.84;5001500;28;9031;-62
2023/01/15 02:41:50;;;;;;;;;;;;;;;26.32;39.44;93360.53;5002505;28;9252;-62
2023/01/15 02:44:24;;;;;;;;;;;;;;;26.32;39.32;93359.81;5006438;28;9420;-62
2023/01/15 02:46:53;;;;;;;;;;;;;;;26.29;39.79;93355.38;5005741;28;7050;-62
2023/01/15 02:49:22;;;;;;;;;;;;;;;26.28;39.81;93359.38;5003044;28;7314;-62
2023/01/15 02:51:57;;;;;;;;;;;;;;;26.29;39.33;93358.13;5004492;28;7054;-62
2023/01/15 02:54:39;;;;;;;;;;;;;;;26.30;39.13;93343.78;5005546;28;8969;-61
2023/01/15 02:57:37;;;;;;;;;;;;;;;26.30;39.96;93345.81;5010452;28;7337;-62
2023/01/15 03:00:33;;;;;;;;;;;;;;;26.30;39.26;93351.31;5003476;28;7062;-62
2023/01/15 03:03:36;;;;;;;;;;;;;;;26.30;39.84;93337.53;4930830;29;7437;-62
2023/01/15 03:06:56;;;;;;;;;;;;;;;26.29;39.47;93328.56;4932891;29;9438;-62
2023/01/15 03:09:23;;;;;;;;;;;;;;;26.29;39.88;93323.03;4895442;29;9408;-62
2023/01/15 03:12:24;;;;;;;;;;;;;;;26.31;39.51;93314.22;4905316;29;9344;-62
2023/01/15 03:15:10;;;;;;;;;;;;;;;26.31;39.52;93314.97;4855228;29;9983;-62
2023/01/15 03:17:55;;;;;;;;;;;;;;;26.31;39.72;93300.44;4872176;29;7583;-62
2023/01/15 03:20:32;;;;;;;;;;;;;;;26.31;39.16;93312.22;4872338;29;9687;-60
2023/01/15 03:23:10;;;;;;;;;;;;;;;26.28;39.35;93304.25;4861839;29;9192;-60
2023/01/15 03:25:47;;;;;;;;;;;;;;;26.34;39.35;93326.94;4871677;29;7272;-60
2023/01/15 03:28:21;;;;;;;;;;;;;;;26.33;39.39;93311.66;4853159;29;8995;-60
2023/01/15 03:30:51;;;;;;;;;;;;;;;26.33;39.60;93322.69;4852854;29;8920;-62
2023/01/15 03:33:48;;;;;;;;;;;;;;;26.33;39.92;93317.16;4856035;29;8645;-62
2023/01/15 03:36:59;;;;;;;;;;;;;;;26.31;40.03;93319.72;4856306;29;7724;-62
2023/01/15 03:39:27;;;;;;;;;;;;;;;26.29;39.40;93300.97;4840893;29;8524;-62
2023/01/15 03:42:38;;;;;;;;;;;;;;;26.32;39.30;93310.19;4890466;29;7416;-62
2023/01/15 03:45:14;;;;;;;;;;;;;;;26.31;40.01;93286.66;4869545;29;8730;-61
2023/01/15 03:47:50;;;;;;;;;;;;;;;26.29;39.66;93289.97;4869915;29;8708;-61
2023/01/15 03:50:36;;;;;;;;;;;;;;;26.31;39.91;93281.13;4887610;29;7303;-61
2023/01/15 03:53:10;;;;;;;;;;;;;;;26.33;39.19;93281.34;4951261;28;7136;-61
2023/01/15 03:55:53;;;;;;;;;;;;;;;26.32;39.13;93288.13;4969269;28;9512;-61
2023/01/15 03:58:51;;;;;;;;;;;;;;;26.31;39.39;93287.41;4949993;28;6973;-61
2023/01/15 04:01:25;;;;;;;;;;;;;;;26.31;39.75;93284.63;4894377;29;7266;-61
2023/01/15 04:03:54;;;;;;;;;;;;;;;26.32;39.72;93299.88;4908771;29;7238;-61
2023/01/15 04:06:24;;;;;;;;;;;;;;;26.33;39.38;93300.63;4910293;29;7049;-61
2023/01/15 04:08:54;;;;;;;;;;;;;;;26.30;39.88;93296.94;4909963;29;7225;-61
2023/01/15 04:11:25;;;;;;;;;;;;;;;26.34;40.01;93299.34;4909182;29;7164;-61
2023/01/15 04:13:53;;;;;;;;;;;;;;;26.31;39.72;93303.19;4890587;29;9129;-61
2023/01/15 04:16:28;;;;;;;;;;;;;;;26.29;39.90;93294.72;4905350;28;7021;-61
2023/01/15 04:18:54;;;;;;;;;;;;;;;26.28;39.66;93277.44;4932291;28;7004;-61
2023/01/15 04:21:30;;;;;;;;;;;;;;;26.28;39.34;93280.19;4933913;28;8275;-61
2023/01/15 04:24:23;;;;;;;;;;;;;;;26.29;39.26;93278.19;4950576;28;9032;-62
2023/01/15 04:26:50;;;;;;;;;;;;;;;26.29;39.74;93300.25;4938976;28;9660;-61
2023/01/15 04:29:18;;;;;;;;;;;;;;;26.29;39.85;93289.22;4958840;28;9791;-61
2023/01/15 04:31:56;;;;;;;;;;;;;;;26.27;39.91;93300.78;4935040;28;7062;-62
2023/01/15 04:34:28;;;;;;;;;;;;;;;26.25;40.23;93294.34;4934955;28;7332;-62
2023/01/15 04:36:56;;;;;;;;;;;;;;;26.30;40.16;93285.16;4959621;28;7022;-61
2023/01/15 04:39:23;;;;;;;;;;;;;;;26.28;39.41;93290.47;5006370;28;9347;-62
2023/01/15 04:44:57;;;;;;;;;;;;;;;26.25;39.40;93288.81;5013985;28;7676;-62
2023/01/15 04:47:23;;;;;;;;;;;;;;;26.22;39.76;93287.13;5012943;28;7033;-62
2023/01/15 04:49:53;;;;;;;;;;;;;;;26.21;40.18;93289.16;5009992;28;7382;-62
2023/01/15 04:52:29;;;;;;;;;;;;;;;26.24;40.24;93288.06;5017837;28;7858;-62
2023/01/15 04:55:13;;;;;;;;;;;;;;;26.24;40.16;93288.06;5010929;28;9033;-62
2023/01/15 04:57:56;;;;;;;;;;;;;;;26.22;40.47;93281.63;5023271;28;9051;-62
2023/01/15 05:00:52;;;;;;;;;;;;;;;26.24;40.22;93293.59;5011696;28;7934;-62
2023/01/15 05:03:22;;;;;;;;;;;;;;;26.25;39.77;93294.34;4971903;28;9420;-62
2023/01/15 05:06:04;;;;;;;;;;;;;;;26.28;39.96;93304.25;4970690;28;7048;-62
2023/01/15 05:08:30;;;;;;;;;;;;;;;26.22;40.08;93309.19;4964964;28;8686;-62
2023/01/15 05:11:06;;;;;;;;;;;;;;;26.18;40.18;93301.28;4958215;28;7303;-62
2023/01/15 05:13:32;;;;;;;;;;;;;;;26.20;40.31;93295.94;4962161;28;9220;-62
2023/01/15 05:16:18;;;;;;;;;;;;;;;26.23;40.40;93308.63;4960280;28;8802;-62
2023/01/15 05:18:49;;;;;;;;;;;;;;;26.22;40.36;93307.19;4949613;28;9176;-62
2023/01/15 05:21:46;;;;;;;;;;;;;;;26.26;40.58;93301.31;4954723;28;6942;-62
2023/01/15 05:24:50;;;;;;;;;;;;;;;26.26;40.59;93295.78;4963044;28;9044;-62
2023/01/15 05:27:29;;;;;;;;;;;;;;;26.27;40.24;93292.53;4899467;29;7047;-62
2023/01/15 05:29:58;;;;;;;;;;;;;;;26.30;40.40;93285.16;4915382;29;7092;-62
2023/01/15 05:32:24;;;;;;;;;;;;;;;26.31;39.64;93281.88;4894623;29;8767;-62
2023/01/15 05:34:50;;;;;;;;;;;;;;;26.35;39.74;93284.28;4911156;29;9065;-62
2023/01/15 05:37:16;;;;;;;;;;;;;;;26.31;39.93;93281.13;4903072;29;8694;-62
2023/01/15 05:39:41;;;;;;;;;;;;;;;26.28;39.78;93282.94;4919653;28;8938;-61
2023/01/15 05:42:35;;;;;;;;;;;;;;;26.26;40.75;93287.53;4933403;28;8722;-62
2023/01/15 05:45:01;;;;;;;;;;;;;;;26.26;40.24;93277.25;4937030;28;7029;-62
2023/01/15 05:47:27;;;;;;;;;;;;;;;26.30;39.73;93277.63;4918792;28;7362;-61
2023/01/15 05:50:23;;;;;;;;;;;;;;;26.34;39.73;93272.50;4938749;28;7011;-61
2023/01/15 05:53:11;;;;;;;;;;;;;;;26.37;40.40;93262.41;4895874;29;9855;-61
2023/01/15 05:56:00;;;;;;;;;;;;;;;26.33;40.21;93251.75;4887120;29;7020;-61
2023/01/15 05:58:44;;;;;;;;;;;;;;;26.36;39.46;93250.66;4904194;28;9455;-62
2023/01/15 06:01:10;;;;;;;;;;;;;;;26.37;40.37;93240.38;4917708;29;9358;-61
2023/01/15 06:03:59;;;;;;;;;;;;;;;26.37;40.29;93243.13;4915497;29;9239;-61
2023/01/15 06:06:34;;;;;;;;;;;;;;;26.35;40.00;93229.16;4916611;29;9099;-61
2023/01/15 06:09:01;;;;;;;;;;;;;;;26.38;39.20;93245.31;4906865;29;7058;-61
2023/01/15 06:11:32;;;;;;;;;;;;;;;26.37;39.67;93227.31;4912986;29;7304;-62
2023/01/15 06:13:58;;;;;;;;;;;;;;;26.35;39.54;93226.38;4919365;29;7581;-62
2023/01/15 06:16:48;;;;;;;;;;;;;;;26.39;39.40;93222.00;4915587;29;7401;-61
2023/01/15 06:19:46;;;;;;;;;;;;;;;26.40;39.69;93222.75;4937748;28;7516;-61
2023/01/15 06:22:14;;;;;;;;;;;;;;;26.38;40.13;93225.31;4899744;29;9033;-61
2023/01/15 06:24:40;;;;;;;;;;;;;;;26.41;40.01;93224.22;4908355;29;9070;-62
2023/01/15 06:27:06;;;;;;;;;;;;;;;26.40;39.77;93222.75;4894537;29;9055;-61
2023/01/15 06:29:32;;;;;;;;;;;;;;;26.42;39.64;93228.44;4929296;28;9464;-62
2023/01/15 06:31:58;;;;;;;;;;;;;;;26.42;39.48;93231.22;4969931;28;7001;-62
2023/01/15 06:34:26;;;;;;;;;;;;;;;26.40;39.67;93223.50;4954992;28;7164;-62
2023/01/15 06:36:53;;;;;;;;;;;;;;;26.39;39.99;93213.00;4969978;28;7175;-62
2023/01/15 06:39:30;;;;;;;;;;;;;;;26.38;39.65;93219.78;4971001;28;7042;-61
2023/01/15 06:48:02;;;;;;;;;;;;;;;26.40;40.29;93184.16;4962719;28;9258;-61
2023/01/15 06:50:47;;;;;;;;;;;;;;;26.38;40.20;93186.72;4974578;28;7496;-61
2023/01/15 06:54:04;;;;;;;;;;;;;;;26.36;39.92;93190.00;4951415;28;7131;-61
2023/01/15 06:56:30;;;;;;;;;;;;;;;26.35;39.46;93193.31;4914102;29;8322;-61
2023/01/15 06:59:09;;;;;;;;;;;;;;;26.31;39.59;93179.88;4913708;29;10395;-62
2023/01/15 07:01:36;;;;;;;;;;;;;;;26.30;39.80;93181.16;4908615;29;7615;-61
2023/01/15 07:04:22;;;;;;;;;;;;;;;26.29;39.76;93170.69;4916532;29;7279;-61
2023/01/15 07:07:08;;;;;;;;;;;;;;;26.34;40.18;93175.31;4915113;29;7604;-61
2023/01/15 07:09:43;;;;;;;;;;;;;;;26.34;40.02;93175.31;4926327;29;9208;-62
2023/01/15 07:12:24;;;;;;;;;;;;;;;26.33;39.86;93168.31;4946574;29;6872;-61
2023/01/15 07:15:01;;;;;;;;;;;;;;;26.32;39.77;93173.06;4914443;29;7405;-62
2023/01/15 07:17:36;;;;;;;;;;;;;;;26.29;39.81;93163.16;4926794;29;9605;-62
2023/01/15 07:20:05;;;;;;;;;;;;;;;26.30;39.97;93174.91;4941969;28;7040;-62
2023/01/15 07:22:47;;;;;;;;;;;;;;;26.29;39.93;93168.66;4953063;28;7123;-62
2023/01/15 07:25:22;;;;;;;;;;;;;;;26.29;40.48;93165.91;4971740;28;6862;-62
2023/01/15 07:27:50;;;;;;;;;;;;;;;26.28;39.96;93149.91;4952413;28;7077;-61
2023/01/15 07:30:19;;;;;;;;;;;;;;;26.27;40.27;93167.72;4971093;28;9125;-62
2023/01/15 07:33:01;;;;;;;;;;;;;;;26.28;40.51;93155.41;4991651;28;7965;-62
2023/01/15 07:35:29;;;;;;;;;;;;;;;26.29;39.94;93156.91;5026164;28;9044;-62
2023/01/15 07:38:21;;;;;;;;;;;;;;;26.30;40.11;93158.34;5006180;28;7260;-61
2023/01/15 07:52:02;;;;;;;;;;;;;;;26.30;39.97;93178.41;5016858;28;7611;-63
2023/01/15 07:54:30;;;;;;;;;;;;;;;26.31;39.71;93181.91;5005679;28;7260;-62
2023/01/15 07:56:59;;;;;;;;;;;;;;;26.31;40.10;93177.13;5009776;28;7907;-62
2023/01/15 07:59:38;;;;;;;;;;;;;;;26.33;40.47;93165.56;5024625;28;9460;-62
2023/01/15 08:02:05;;;;;;;;;;;;;;;26.33;40.31;93152.50;5026527;28;9494;-62
2023/01/15 08:05:02;;;;;;;;;;;;;;;26.33;40.63;93160.03;5029418;28;9403;-62
2023/01/15 08:07:55;;;;;;;;;;;;;;;26.32;40.87;93148.25;4970594;28;9109;-62
2023/01/15 08:10:30;;;;;;;;;;;;;;;26.37;41.56;93149.38;4980264;28;8988;-63
2023/01/15 08:15:43;;;;;;;;;;;;;;;26.37;40.60;93160.41;4987693;28;9343;-62
2023/01/15 08:18:09;;;;;;;;;;;;;;;26.35;40.38;93149.19;4988211;28;7539;-61
2023/01/15 08:20:37;;;;;;;;;;;;;;;26.32;39.79;93166.84;4986835;28;9098;-61
2023/01/15 08:23:03;;;;;;;;;;;;;;;26.30;40.11;93163.88;4980064;28;7830;-61
2023/01/15 08:25:31;;;;;;;;;;;;;;;26.26;40.06;93166.25;4982743;28;9356;-61
2023/01/15 08:28:01;;;;;;;;;;;;;;;26.29;40.89;93174.19;4968682;28;9055;-61
2023/01/15 08:30:29;;;;;;;;;;;;;;;26.28;40.71;93174.72;4970366;28;7833;-61
2023/01/15 08:33:02;;;;;;;;;;;;;;;26.29;40.49;93170.69;4974935;28;9588;-60
2023/01/15 08:35:30;;;;;;;;;;;;;;;26.32;40.74;93183.38;4987410;28;9441;-61
2023/01/15 08:38:02;;;;;;;;;;;;;;;26.31;41.46;93190.16;4962088;28;7508;-61
2023/01/15 08:40:28;;;;;;;;;;;;;;;26.28;41.58;93182.97;4983283;28;8690;-61
2023/01/15 08:42:54;;;;;;;;;;;;;;;26.27;41.14;93181.50;4990882;28;7812;-61
2023/01/15 08:45:19;;;;;;;;;;;;;;;26.27;40.43;93190.53;5020310;28;7214;-61
2023/01/15 08:47:48;;;;;;;;;;;;;;;26.28;40.53;93197.50;5010667;28;7217;-61
2023/01/15 08:50:14;;;;;;;;;;;;;;;26.26;40.84;93210.34;5014434;28;7134;-61
2023/01/15 08:52:42;;;;;;;;;;;;;;;26.26;40.02;93229.66;5006315;28;7818;-61
2023/01/15 08:55:08;;;;;;;;;;;;;;;26.26;40.10;93233.13;5020151;28;9326;-62
2023/01/15 08:57:35;;;;;;;;;;;;;;;26.27;40.72;93248.41;5007429;28;9491;-62
2023/01/15 09:00:01;;;;;;;;;;;;;;;26.29;40.59;93242.34;5004540;28;7400;-63
2023/01/15 09:02:29;;;;;;;;;;;;;;;26.31;40.43;93264.59;5003249;28;7685;-62
2023/01/15 09:04:55;;;;;;;;;;;;;;;26.31;40.76;93278.38;5020414;28;7648;-62
2023/01/15 09:07:21;;;;;;;;;;;;;;;26.31;40.16;93287.41;5026576;28;9804;-61
2023/01/15 09:09:49;;;;;;;;;;;;;;;26.30;40.52;93293.44;5025451;28;7034;-61
2023/01/15 09:12:16;;;;;;;;;;;;;;;26.30;40.98;93304.47;5003520;28;7135;-61
2023/01/15 09:14:42;;;;;;;;;;;;;;;26.28;40.38;93312.53;5007110;28;7054;-61
2023/01/15 09:17:08;;;;;;;;;;;;;;;26.28;41.01;93309.78;5006895;28;9022;-61
2023/01/15 09:19:34;;;;;;;;;;;;;;;26.28;40.95;93324.31;5006594;28;9039;-62
2023/01/15 09:22:01;;;;;;;;;;;;;;;26.29;41.56;93334.06;5010862;28;7353;-62
2023/01/15 09:24:31;;;;;;;;;;;;;;;26.31;41.18;93339.03;4993382;28;8742;-62
2023/01/15 09:27:00;;;;;;;;;;;;;;;26.33;41.46;93358.53;5007300;28;7131;-62
2023/01/15 09:29:28;;;;;;;;;;;;;;;26.32;41.20;93373.59;5023993;28;7010;-62
2023/01/15 09:31:54;;;;;;;;;;;;;;;26.34;41.28;93366.25;5014605;28;9145;-62
2023/01/15 09:34:47;;;;;;;;;;;;;;;26.34;41.07;93382.06;5011224;28;7257;-62
2023/01/15 09:37:15;;;;;;;;;;;;;;;26.34;41.58;93379.31;5019425;28;9074;-62
2023/01/15 09:39:53;;;;;;;;;;;;;;;26.34;40.97;93379.31;5021220;28;9082;-62
2023/01/15 09:42:43;;;;;;;;;;;;;;;26.36;40.90;93393.28;5018439;28;8756;-62
2023/01/15 09:45:25;;;;;;;;;;;;;;;26.35;41.10;93397.31;5009847;28;7259;-62
2023/01/15 09:48:31;;;;;;;;;;;;;;;26.34;41.24;93415.16;5029891;28;9416;-62
2023/01/15 09:51:37;;;;;;;;;;;;;;;26.34;40.99;93431.69;4987490;28;9123;-62
2023/01/15 09:54:31;;;;;;;;;;;;;;;26.34;41.36;93451.00;4987107;28;7336;-62
2023/01/15 09:57:00;;;;;;;;;;;;;;;26.31;41.30;93457.56;4906361;29;6941;-62
2023/01/15 09:59:48;;;;;;;;;;;;;;;26.32;41.88;93472.84;4898637;29;7508;-62
2023/01/15 10:02:26;;;;;;;;;;;;;;;26.32;41.73;93478.34;4910644;29;9133;-62
2023/01/15 10:05:03;;;;;;;;;;;;;;;26.31;41.24;93496.91;4908594;29;7863;-61
2023/01/15 10:08:02;;;;;;;;;;;;;;;26.34;41.86;93514.41;4908494;29;7032;-61
2023/01/15 10:10:41;;;;;;;;;;;;;;;26.33;41.35;93515.66;4863548;29;9084;-61
2023/01/15 10:13:48;;;;;;;;;;;;;;;26.32;40.91;93530.72;4891379;29;8791;-61
2023/01/15 10:16:35;;;;;;;;;;;;;;;26.30;41.57;93544.28;4906729;29;13286;-61
2023/01/15 10:19:03;;;;;;;;;;;;;;;26.31;41.47;93554.06;4917118;28;9094;-62
2023/01/15 10:21:54;;;;;;;;;;;;;;;26.32;41.50;93561.06;4924832;28;8307;-62
2023/01/15 10:24:28;;;;;;;;;;;;;;;26.29;40.82;93578.66;4925104;28;7373;-62
2023/01/15 10:27:32;;;;;;;;;;;;;;;26.32;41.41;93589.34;4927611;28;7381;-61
2023/01/15 10:30:50;;;;;;;;;;;;;;;26.32;41.26;93594.16;4879203;29;11226;-62
2023/01/15 10:33:49;;;;;;;;;;;;;;;26.29;41.24;93592.44;4878500;29;8277;-61
2023/01/15 10:36:32;;;;;;;;;;;;;;;26.29;41.20;93597.97;4915484;29;8677;-61
2023/01/15 10:39:18;;;;;;;;;;;;;;;26.28;41.28;93601.97;4910845;29;9376;-62
2023/01/15 10:42:33;;;;;;;;;;;;;;;26.30;41.19;93610.44;4891034;29;7329;-61
2023/01/15 10:45:25;;;;;;;;;;;;;;;26.25;41.26;93606.56;4916121;29;8290;-61
2023/01/15 10:48:02;;;;;;;;;;;;;;;26.23;41.91;93609.09;4897747;29;7283;-61
2023/01/15 10:50:28;;;;;;;;;;;;;;;26.25;41.50;93622.34;4924361;29;7248;-61
2023/01/15 10:53:16;;;;;;;;;;;;;;;26.26;41.25;93615.56;4925707;29;7298;-61
2023/01/15 10:55:51;;;;;;;;;;;;;;;26.26;41.91;93621.06;4920259;29;7311;-61
2023/01/15 10:58:41;;;;;;;;;;;;;;;26.22;41.74;93615.16;4924438;29;8555;-61
2023/01/15 11:01:15;;;;;;;;;;;;;;;26.26;41.58;93626.59;4929121;29;6981;-61
2023/01/15 11:03:43;;;;;;;;;;;;;;;26.27;41.45;93633.59;4895942;29;9333;-61
2023/01/15 11:06:22;;;;;;;;;;;;;;;26.24;41.43;93643.66;4937349;28;7029;-61
2023/01/15 11:08:54;;;;;;;;;;;;;;;26.24;41.75;93651.94;4992887;28;7474;-61
2023/01/15 11:20:36;;;;;;;;;;;;;;;26.27;41.26;93666.66;4969116;28;7253;-61
2023/01/15 11:23:18;;;;;;;;;;;;;;;26.28;41.25;93676.41;4962511;28;9014;-62
2023/01/15 11:26:02;;;;;;;;;;;;;;;26.27;41.30;93686.72;4966360;28;9684;-62
2023/01/15 11:28:34;;;;;;;;;;;;;;;26.28;41.07;93695.72;4950293;28;7194;-61
2023/01/15 11:31:03;;;;;;;;;;;;;;;26.27;41.37;93697.00;4965859;28;9071;-62
2023/01/15 11:33:30;;;;;;;;;;;;;;;26.24;41.13;93698.03;4952855;28;8769;-62
2023/01/15 11:36:07;;;;;;;;;;;;;;;26.30;41.84;93709.69;4949260;28;7246;-61
2023/01/15 11:38:47;;;;;;;;;;;;;;;26.30;41.33;93726.25;4949326;28;7575;-62
2023/01/15 11:41:21;;;;;;;;;;;;;;;26.27;41.36;93730.06;4963915;28;7133;-62
2023/01/15 11:52:16;;;;;;;;;;;;;;;26.23;41.97;93752.44;5007222;28;9477;-62
2023/01/15 11:54:48;;;;;;;;;;;;;;;26.22;42.30;93769.50;5011567;28;8566;-61
2023/01/15 11:57:31;;;;;;;;;;;;;;;26.24;41.53;93769.72;5024798;28;9397;-62
2023/01/15 11:59:58;;;;;;;;;;;;;;;26.22;41.50;93777.78;5021318;28;9394;-61
2023/01/15 12:05:16;;;;;;;;;;;;;;;26.22;41.36;93780.53;5010089;28;7167;-61
2023/01/15 12:07:52;;;;;;;;;;;;;;;26.27;41.62;93787.97;5011952;28;9610;-61
2023/01/15 12:13:33;;;;;;;;;;;;;;;26.28;41.37;93806.72;5001853;28;7241;-62
2023/01/15 12:16:54;;;;;;;;;;;;;;;26.25;40.91;93804.28;5025277;28;6983;-62
2023/01/15 12:19:43;;;;;;;;;;;;;;;26.20;41.05;93807.88;4929390;28;7525;-62
2023/01/15 12:22:33;;;;;;;;;;;;;;;26.22;41.25;93813.63;4923293;29;9590;-62
2023/01/15 12:25:22;;;;;;;;;;;;;;;26.20;41.44;93816.91;4913309;29;9362;-63
2023/01/15 12:28:07;;;;;;;;;;;;;;;26.20;40.98;93824.44;4928030;29;7253;-62
2023/01/15 12:31:00;;;;;;;;;;;;;;;26.19;41.43;93822.97;4902283;29;9066;-62
2023/01/15 12:34:04;;;;;;;;;;;;;;;26.20;41.77;93827.19;4931828;29;10705;-62
2023/01/15 12:36:52;;;;;;;;;;;;;;;26.20;41.51;93825.19;4917916;29;8881;-61
2023/01/15 12:40:07;;;;;;;;;;;;;;;26.21;41.50;93831.44;4932092;29;7289;-61
2023/01/15 12:45:33;;;;;;;;;;;;;;;26.16;41.11;93825.47;4925517;29;7150;-61
2023/01/15 12:48:13;;;;;;;;;;;;;;;26.12;41.81;93827.81;4920715;28;9092;-61
2023/01/15 12:50:56;;;;;;;;;;;;;;;26.15;41.61;93837.78;4925467;29;9108;-62
2023/01/15 12:53:50;;;;;;;;;;;;;;;26.09;41.60;93844.66;4956394;28;9023;-63
2023/01/15 12:56:56;;;;;;;;;;;;;;;26.12;41.03;93838.81;4989058;28;9380;-62
2023/01/15 13:00:02;;;;;;;;;;;;;;;26.11;41.38;93847.63;4974150;28;9183;-62
2023/01/15 13:02:47;;;;;;;;;;;;;;;26.11;41.35;93851.13;4942907;28;7766;-61
2023/01/15 13:05:25;;;;;;;;;;;;;;;26.10;41.97;93830.34;4930042;28;7218;-62
2023/01/15 13:08:34;;;;;;;;;;;;;;;26.10;41.19;93835.84;4927338;28;9049;-62
2023/01/15 13:11:02;;;;;;;;;;;;;;;26.10;41.03;93833.09;4927437;29;7047;-61
2023/01/15 13:13:56;;;;;;;;;;;;;;;26.12;41.66;93838.09;4926118;29;7047;-61
2023/01/15 13:16:47;;;;;;;;;;;;;;;26.14;41.20;93835.56;4928960;29;9240;-61
2023/01/15 13:19:29;;;;;;;;;;;;;;;26.13;40.99;93834.06;4919269;29;7267;-61
2023/01/15 13:22:05;;;;;;;;;;;;;;;26.11;41.05;93834.59;4928406;29;7281;-61
2023/01/15 13:24:31;;;;;;;;;;;;;;;26.15;41.57;93839.78;4907747;29;7660;-61
2023/01/15 13:27:06;;;;;;;;;;;;;;;26.14;41.73;93841.06;4912235;29;7021;-61
2023/01/15 13:30:09;;;;;;;;;;;;;;;26.15;41.74;93837.78;4912156;29;7671;-61
2023/01/15 13:32:55;;;;;;;;;;;;;;;26.15;41.31;93842.53;4912366;29;7124;-62
2023/01/15 13:35:26;;;;;;;;;;;;;;;26.19;41.18;93858.78;4927712;29;8945;-61
2023/01/15 13:37:59;;;;;;;;;;;;;;;26.18;41.68;93852.53;4922147;28;9333;-61
2023/01/15 13:40:50;;;;;;;;;;;;;;;26.20;40.96;93854.75;4988868;28;8773;-62
2023/01/15 13:43:39;;;;;;;;;;;;;;;26.21;41.05;93864.53;4999785;28;9032;-61
2023/01/15 13:46:11;;;;;;;;;;;;;;;26.20;41.74;93863.78;4987237;28;9124;-61
2023/01/15 13:48:52;;;;;;;;;;;;;;;26.20;41.49;93871.28;4991186;28;8996;-61
2023/01/15 13:51:47;;;;;;;;;;;;;;;26.20;41.26;93849.22;5007628;28;7035;-62
2023/01/15 13:54:27;;;;;;;;;;;;;;;26.19;41.03;93848.47;4989797;28;7228;-62
2023/01/15 13:56:53;;;;;;;;;;;;;;;26.17;41.41;93835.25;4986114;28;7273;-62
2023/01/15 13:59:49;;;;;;;;;;;;;;;26.21;41.56;93834.19;4990887;28;8651;-62
2023/01/15 14:02:39;;;;;;;;;;;;;;;26.20;41.36;93830.69;4996605;28;11832;-63
2023/01/15 14:05:58;;;;;;;;;;;;;;;26.17;41.02;93821.47;5022156;28;7520;-62
2023/01/15 14:08:57;;;;;;;;;;;;;;;26.22;41.64;93794.31;5010612;28;8656;-62
2023/01/15 14:12:12;;;;;;;;;;;;;;;26.18;42.04;93808.44;4932432;28;9093;-61
2023/01/15 14:14:52;;;;;;;;;;;;;;;26.19;41.08;93793.34;4929317;29;9041;-62
2023/01/15 14:20:53;;;;;;;;;;;;;;;26.24;41.93;93794.53;4936746;28;8770;-61
2023/01/15 14:24:12;;;;;;;;;;;;;;;26.22;40.93;93805.34;4931885;28;9477;-61
2023/01/15 14:27:34;;;;;;;;;;;;;;;26.19;40.95;93807.13;4940945;28;9011;-61
2023/01/15 14:30:16;;;;;;;;;;;;;;;26.18;41.18;93805.66;4879917;29;8716;-61
2023/01/15 14:32:46;;;;;;;;;;;;;;;26.19;41.67;93806.41;4871671;29;7394;-61
2023/01/15 14:35:19;;;;;;;;;;;;;;;26.16;41.94;93814.44;4870531;29;9073;-61
2023/01/15 14:37:50;;;;;;;;;;;;;;;26.19;42.17;93820.19;4889101;29;8015;-62
2023/01/15 14:40:21;;;;;;;;;;;;;;;26.19;42.25;93826.44;4884710;29;8900;-62
2023/01/15 14:43:00;;;;;;;;;;;;;;;26.20;41.30;93821.66;4872617;29;9783;-62
2023/01/15 14:45:56;;;;;;;;;;;;;;;26.25;41.94;93823.59;4875099;29;7524;-62
2023/01/15 14:48:28;;;;;;;;;;;;;;;26.25;42.02;93832.63;4915517;29;7040;-63
2023/01/15 14:51:14;;;;;;;;;;;;;;;26.22;41.03;93850.19;4933981;28;7036;-63
2023/01/15 14:53:52;;;;;;;;;;;;;;;26.22;42.30;93852.22;4941721;28;9075;-63